createdAt,value
2018-12-25T00:02:28.589Z,99.90
2018-12-25T00:04:57.378Z,99.90
2018-12-25T00:07:26.104Z,99.90
2018-12-25T00:09:54.877Z,99.90
2018-12-25T00:12:23.649Z,99.90
2018-12-25T00:14:52.459Z,99.90
2018-12-25T00:17:21.200Z,99.90
2018-12-25T00:19:49.968Z,99.90
2018-12-25T00:22:18.789Z,99.90
2018-12-25T00:24:47.543Z,99.90
2018-12-25T00:27:16.318Z,99.90
2018-12-25T00:29:45.101Z,99.90
2018-12-25T00:32:13.861Z,99.90
2018-12-25T00:34:42.667Z,99.90
2018-12-25T00:37:11.489Z,99.90
2018-12-25T00:39:40.229Z,99.90
2018-12-25T00:42:09.427Z,99.90
2018-12-25T00:44:38.260Z,99.90
2018-12-25T00:47:07.342Z,99.90
2018-12-25T00:49:36.510Z,99.90
2018-12-25T00:52:05.657Z,99.90
2018-12-25T00:54:34.461Z,99.90
2018-12-25T00:57:03.213Z,99.90
2018-12-25T00:59:31.981Z,99.90
2018-12-25T01:02:02.238Z,99.90
2018-12-25T01:04:31.192Z,99.90
2018-12-25T01:06:59.992Z,99.90
2018-12-25T01:09:28.834Z,99.90
2018-12-25T01:11:57.743Z,99.90
2018-12-25T01:14:26.518Z,99.90
2018-12-25T01:16:55.305Z,99.90
2018-12-25T01:19:24.097Z,99.90
2018-12-25T01:21:52.887Z,99.90
2018-12-25T01:24:21.633Z,99.90
2018-12-25T01:26:50.462Z,99.90
2018-12-25T01:29:19.278Z,99.90
2018-12-25T01:31:48.045Z,99.90
2018-12-25T01:34:16.791Z,99.90
2018-12-25T01:36:45.535Z,99.90
2018-12-25T01:39:14.305Z,99.90
2018-12-25T01:41:43.354Z,99.90
2018-12-25T01:44:12.127Z,99.90
2018-12-25T01:46:40.881Z,99.90
2018-12-25T01:49:09.612Z,99.90
2018-12-25T01:51:38.391Z,99.90
2018-12-25T01:54:07.201Z,99.90
2018-12-25T01:56:35.960Z,99.90
2018-12-25T01:59:04.703Z,99.90
2018-12-25T02:01:33.465Z,99.90
2018-12-25T02:04:02.244Z,99.90
2018-12-25T02:06:31.045Z,99.90
2018-12-25T02:08:59.822Z,99.90
2018-12-25T02:11:28.933Z,99.90
2018-12-25T02:13:57.673Z,99.90
2018-12-25T02:16:26.401Z,99.90
2018-12-25T02:18:55.156Z,99.90
2018-12-25T02:21:23.929Z,99.90
2018-12-25T02:23:52.770Z,99.90
2018-12-25T02:26:21.561Z,99.90
2018-12-25T02:28:50.368Z,99.90
2018-12-25T02:31:19.179Z,99.90
2018-12-25T02:33:47.992Z,99.90
2018-12-25T02:36:16.765Z,99.90
2018-12-25T02:38:45.602Z,99.90
2018-12-25T02:41:14.415Z,99.90
2018-12-25T02:43:44.622Z,99.90
2018-12-25T02:46:13.372Z,99.90
2018-12-25T02:48:43.566Z,99.90
2018-12-25T02:51:12.372Z,99.90
2018-12-25T02:53:41.110Z,99.90
2018-12-25T02:56:09.878Z,99.90
2018-12-25T02:58:38.641Z,99.90
2018-12-25T03:01:07.428Z,99.90
2018-12-25T03:03:36.193Z,99.90
2018-12-25T03:06:04.988Z,99.90
2018-12-25T03:08:33.820Z,99.90
2018-12-25T03:11:02.585Z,99.90
2018-12-25T03:13:31.394Z,99.90
2018-12-25T03:16:00.220Z,99.90
2018-12-25T03:18:28.957Z,99.90
2018-12-25T03:20:57.963Z,99.90
2018-12-25T03:23:26.733Z,99.90
2018-12-25T03:25:55.460Z,99.90
2018-12-25T03:28:24.242Z,99.90
2018-12-25T03:30:52.999Z,99.90
2018-12-25T03:33:21.754Z,99.90
2018-12-25T03:35:50.564Z,99.90
2018-12-25T03:38:19.304Z,99.90
2018-12-25T03:40:48.050Z,99.90
2018-12-25T03:43:16.816Z,99.90
2018-12-25T03:45:45.586Z,99.90
2018-12-25T03:48:14.400Z,99.90
2018-12-25T03:50:43.246Z,99.90
2018-12-25T03:53:12.325Z,99.90
2018-12-25T03:55:41.082Z,99.90
2018-12-25T03:58:09.855Z,99.90
2018-12-25T04:00:38.622Z,99.90
2018-12-25T04:03:07.341Z,99.90
2018-12-25T04:05:36.090Z,99.90
2018-12-25T04:08:04.859Z,99.90
2018-12-25T04:10:33.955Z,99.90
2018-12-25T04:13:03.174Z,99.90
2018-12-25T04:15:31.931Z,99.90
2018-12-25T04:18:00.715Z,99.90
2018-12-25T04:20:29.558Z,99.90
2018-12-25T04:22:58.292Z,99.90
2018-12-25T04:25:27.032Z,99.90
2018-12-25T04:27:55.835Z,99.90
2018-12-25T04:30:24.548Z,99.90
2018-12-25T04:32:53.323Z,99.90
2018-12-25T04:35:22.093Z,99.90
2018-12-25T04:37:50.873Z,99.90
2018-12-25T04:40:19.605Z,99.90
2018-12-25T04:42:48.357Z,99.90
2018-12-25T04:45:17.093Z,99.90
2018-12-25T04:47:45.879Z,99.90
2018-12-25T04:50:14.635Z,99.90
2018-12-25T04:52:43.380Z,99.90
2018-12-25T04:55:12.104Z,99.90
2018-12-25T04:57:40.866Z,99.90
2018-12-25T05:00:10.019Z,99.90
2018-12-25T05:02:38.901Z,99.90
2018-12-25T05:05:07.700Z,99.90
2018-12-25T05:07:36.446Z,99.90
2018-12-25T05:10:06.174Z,99.90
2018-12-25T05:12:35.029Z,99.90
2018-12-25T05:15:04.494Z,99.90
2018-12-25T05:17:33.274Z,99.90
2018-12-25T05:20:02.075Z,99.90
2018-12-25T05:22:30.810Z,99.90
2018-12-25T05:24:59.552Z,99.90
2018-12-25T05:27:47.750Z,99.90
2018-12-25T05:41:47.101Z,99.90
2018-12-25T07:00:26.806Z,99.90
2018-12-25T07:24:14.404Z,99.90
2018-12-25T08:47:47.126Z,99.90
2018-12-25T09:53:10.479Z,94.60
2018-12-25T09:55:52.228Z,93.70
2018-12-25T10:07:32.498Z,92.40
2018-12-25T10:37:06.933Z,87.70
2018-12-25T11:09:53.550Z,71.90
2018-12-25T11:12:35.014Z,69.80
2018-12-25T11:21:27.231Z,67.90
2018-12-25T11:24:08.635Z,68.20
2018-12-25T11:33:01.414Z,45.10
2018-12-25T11:56:34.152Z,62.60
2018-12-25T12:20:09.325Z,57.80
2018-12-25T12:22:50.455Z,57.60
2018-12-25T12:58:34.902Z,61.80
2018-12-25T13:07:29.207Z,54.40
2018-12-25T13:57:54.366Z,50.20
2018-12-25T14:39:27.213Z,63.90
2018-12-25T15:05:35.008Z,66.30
2018-12-25T16:31:47.318Z,57.70
2018-12-25T16:37:40.720Z,55.00
2018-12-25T16:40:21.306Z,57.90
2018-12-25T16:57:56.365Z,51.60
2018-12-25T17:00:25.105Z,48.80
2018-12-25T17:20:00.153Z,46.80
2018-12-25T17:37:12.966Z,43.60
2018-12-25T17:42:54.781Z,44.20
2018-12-25T17:51:18.491Z,42.40
2018-12-25T17:54:10.704Z,44.90
2018-12-25T17:59:44.197Z,40.80
2018-12-25T18:05:00.794Z,43.50
2018-12-25T18:13:17.120Z,42.40
2018-12-25T18:21:55.416Z,42.40
2018-12-25T18:27:49.585Z,40.20
2018-12-25T18:36:29.950Z,44.30
2018-12-25T18:39:18.500Z,42.90
2018-12-25T18:42:06.663Z,42.10
2018-12-25T18:44:55.081Z,41.20
2018-12-25T18:56:06.494Z,36.70
2018-12-25T19:04:10.893Z,36.10
2018-12-25T19:09:46.765Z,37.40
2018-12-25T19:24:14.196Z,31.90
2018-12-25T19:26:42.935Z,31.90
2018-12-25T19:29:31.377Z,30.90
2018-12-25T19:32:19.440Z,27.30
2018-12-25T19:37:35.989Z,30.40
2018-12-25T19:40:24.154Z,34.50
2018-12-25T19:42:52.931Z,30.10
2018-12-25T19:48:29.021Z,30.00
2018-12-25T19:54:05.188Z,30.00
2018-12-25T20:05:36.041Z,30.00
2018-12-25T20:08:44.860Z,30.20
2018-12-25T20:11:52.298Z,28.20
2018-12-25T20:17:48.852Z,28.70
2018-12-25T20:29:27.717Z,28.10
2018-12-25T20:32:17.311Z,27.40
2018-12-25T20:35:24.798Z,26.30
2018-12-25T20:44:08.136Z,25.10
2018-12-25T20:50:03.342Z,28.50
2018-12-25T20:53:10.740Z,22.40
2018-12-25T21:01:54.644Z,25.00
2018-12-25T21:05:02.048Z,24.40
2018-12-25T21:10:58.794Z,21.00
2018-12-25T21:17:18.948Z,23.00
2018-12-25T21:20:26.345Z,22.60
2018-12-25T21:23:33.772Z,24.00
2018-12-25T21:34:25.864Z,24.30
2018-12-25T21:39:43.182Z,18.10
2018-12-25T21:42:31.444Z,20.30
2018-12-25T21:47:48.020Z,19.60
2018-12-25T21:50:16.793Z,15.70
2018-12-25T21:53:06.438Z,17.60
2018-12-25T21:55:35.273Z,20.30
2018-12-25T21:58:04.035Z,21.50
2018-12-25T22:00:35.268Z,17.50
2018-12-25T22:03:03.846Z,15.30
2018-12-25T22:05:32.833Z,16.50
2018-12-25T22:22:59.228Z,14.70
2018-12-25T22:37:36.128Z,15.00
2018-12-25T22:49:28.990Z,23.50
2018-12-25T23:22:02.956Z,27.00
